Time;durP1;ratioP1;P1;durP2;ratioP2;P2;SDS_P1;SDS_P2;PMS_P1;PMS_P2;Temp;Humidity;BMP_temperature;BMP_pressure;BME280_temperature;BME280_humidity;BME280_pressure;Samples;Min_cycle;Max_cycle;Signal;HPM_P1;HPM_P2
2022/04/01 00:02:04;;;;;;;28.50;25.77;;;3.70;99.90;;;;;;5000237;28;20099;-73
2022/04/01 00:04:30;;;;;;;27.67;24.95;;;3.70;99.90;;;;;;5023948;28;20503;-72
2022/04/01 00:06:56;;;;;;;28.63;25.83;;;3.70;99.90;;;;;;5027561;28;20045;-72
2022/04/01 00:09:22;;;;;;;26.85;24.33;;;3.70;99.90;;;;;;5023031;28;20021;-72
2022/04/01 00:11:47;;;;;;;28.30;25.63;;;3.80;99.90;;;;;;5039429;28;20447;-72
2022/04/01 00:14:13;;;;;;;26.98;24.48;;;3.90;99.90;;;;;;5022421;28;20021;-72
2022/04/01 00:16:39;;;;;;;26.83;24.23;;;3.80;99.90;;;;;;5040253;28;20039;-72
2022/04/01 00:19:05;;;;;;;26.92;24.23;;;3.80;99.90;;;;;;5035614;28;20026;-71
2022/04/01 00:21:31;;;;;;;27.95;25.25;;;3.70;99.90;;;;;;5021933;28;20536;-72
2022/04/01 00:23:56;;;;;;;27.58;24.95;;;3.70;99.90;;;;;;5035143;28;20029;-72
2022/04/01 00:26:22;;;;;;;27.42;24.85;;;3.70;99.90;;;;;;5021757;28;20030;-72
2022/04/01 00:28:47;;;;;;;25.73;23.30;;;3.80;99.90;;;;;;5027976;28;20076;-72
2022/04/01 00:31:13;;;;;;;28.08;25.48;;;3.80;99.90;;;;;;5015537;28;20112;-73
2022/04/01 00:33:39;;;;;;;27.95;25.15;;;3.80;99.90;;;;;;5027898;28;20455;-72
2022/04/01 00:36:05;;;;;;;27.88;25.13;;;3.60;99.90;;;;;;5028260;28;20026;-71
2022/04/01 00:38:31;;;;;;;27.45;24.85;;;3.70;99.90;;;;;;5021020;28;20060;-73
2022/04/01 00:40:58;;;;;;;27.35;24.75;;;3.60;99.90;;;;;;5021323;28;20069;-71
2022/04/01 00:43:32;;;;;;;28.20;25.50;;;3.70;99.90;;;;;;5027540;28;20021;-71
2022/04/01 00:45:58;;;;;;;27.15;24.55;;;3.60;99.90;;;;;;5030067;28;20026;-72
2022/04/01 00:48:25;;;;;;;26.88;24.27;;;3.60;99.90;;;;;;5026426;28;20026;-72
2022/04/01 00:50:50;;;;;;;28.60;25.83;;;3.60;99.90;;;;;;5028137;28;20033;-72
2022/04/01 00:53:19;;;;;;;28.27;25.50;;;3.60;99.90;;;;;;5021564;28;20183;-73
2022/04/01 00:55:46;;;;;;;27.17;24.58;;;3.70;99.90;;;;;;5045442;28;20026;-72
2022/04/01 00:58:12;;;;;;;28.15;25.30;;;3.70;99.90;;;;;;5034564;28;20029;-73
2022/04/01 01:00:38;;;;;;;26.48;23.88;;;3.70;99.90;;;;;;5020961;28;20021;-73
2022/04/01 01:03:07;;;;;;;26.73;24.13;;;3.60;99.90;;;;;;5025831;28;20030;-73
2022/04/01 01:05:33;;;;;;;28.30;25.55;;;3.70;99.90;;;;;;5016845;28;20044;-72
2022/04/01 01:07:59;;;;;;;28.08;25.27;;;3.60;99.90;;;;;;5033185;28;20474;-72
2022/04/01 01:10:25;;;;;;;27.50;24.80;;;3.70;99.90;;;;;;5020862;28;20443;-72
2022/04/01 01:12:51;;;;;;;25.80;23.30;;;3.60;99.90;;;;;;5023734;28;20025;-72
2022/04/01 01:15:18;;;;;;;27.90;25.15;;;3.60;99.90;;;;;;5029973;28;20447;-73
2022/04/01 01:17:47;;;;;;;27.65;24.85;;;3.50;99.90;;;;;;5033762;28;20037;-74
2022/04/01 01:20:17;;;;;;;26.33;23.65;;;3.60;99.90;;;;;;5031143;28;20041;-73
2022/04/01 01:22:44;;;;;;;26.42;23.92;;;3.60;99.90;;;;;;5029278;28;20434;-73
2022/04/01 01:25:12;;;;;;;26.33;23.77;;;3.70;99.90;;;;;;5034055;28;20026;-73
2022/04/01 01:27:39;;;;;;;27.17;24.52;;;3.60;99.90;;;;;;5032718;28;20029;-74
2022/04/01 01:30:07;;;;;;;25.13;22.73;;;3.50;99.90;;;;;;5021608;28;20084;-74
2022/04/01 01:32:34;;;;;;;25.38;22.98;;;3.60;99.90;;;;;;5033635;28;20032;-73
2022/04/01 01:35:00;;;;;;;25.45;22.95;;;3.60;99.90;;;;;;5029002;28;20022;-73
2022/04/01 01:37:26;;;;;;;25.25;22.75;;;3.60;99.90;;;;;;5025703;28;20483;-74
2022/04/01 01:39:52;;;;;;;25.30;22.88;;;3.50;99.90;;;;;;5045901;28;20032;-73
2022/04/01 01:42:18;;;;;;;25.35;22.83;;;3.50;99.90;;;;;;5031865;28;20033;-74
2022/04/01 01:44:45;;;;;;;25.17;22.77;;;3.60;99.90;;;;;;5033583;28;20387;-74
2022/04/01 01:47:11;;;;;;;25.38;22.85;;;3.60;99.90;;;;;;5033575;28;20025;-73
2022/04/01 01:49:36;;;;;;;25.02;22.42;;;3.60;99.90;;;;;;5027400;28;20030;-73
2022/04/01 01:54:50;;;;;;;25.25;22.83;;;3.50;99.90;;;;;;5021093;28;20124;-73
2022/04/01 01:57:18;;;;;;;25.38;22.88;;;3.60;99.90;;;;;;5033290;28;20033;-74
2022/04/01 01:59:44;;;;;;;24.10;21.73;;;3.50;99.90;;;;;;5033380;28;20021;-74
2022/04/01 02:02:10;;;;;;;23.70;21.30;;;3.60;99.90;;;;;;5030041;28;20030;-73
2022/04/01 02:04:39;;;;;;;27.05;24.38;;;3.70;99.90;;;;;;5021647;28;20056;-73
2022/04/01 02:07:04;;;;;;;24.42;22.13;;;3.60;99.90;;;;;;5032773;28;20124;-73
2022/04/01 02:09:31;;;;;;;25.10;22.60;;;3.60;99.90;;;;;;5023141;28;20539;-72
2022/04/01 02:11:57;;;;;;;25.05;22.55;;;3.60;99.90;;;;;;5013125;28;20545;-73
2022/04/01 02:14:22;;;;;;;24.75;22.30;;;3.60;99.90;;;;;;5021967;28;20033;-72
2022/04/01 02:16:48;;;;;;;25.80;23.20;;;3.70;99.90;;;;;;5036307;28;20394;-72
2022/04/01 02:19:20;;;;;;;24.42;22.00;;;3.60;99.90;;;;;;5024476;28;20026;-72
2022/04/01 02:21:51;;;;;;;24.38;22.00;;;3.60;99.90;;;;;;5012948;28;20022;-73
2022/04/01 02:24:17;;;;;;;24.13;21.73;;;3.60;99.90;;;;;;5011859;28;20026;-73
2022/04/01 02:26:44;;;;;;;35.70;31.85;;;3.60;99.90;;;;;;5026285;28;20022;-72
2022/04/01 02:29:10;;;;;;;23.98;21.70;;;3.50;99.90;;;;;;5022514;28;20025;-73
2022/04/01 02:31:35;;;;;;;24.95;22.55;;;3.50;99.90;;;;;;5028902;28;20073;-73
2022/04/01 02:34:03;;;;;;;23.83;21.52;;;3.50;99.90;;;;;;5022030;28;20510;-73
2022/04/01 02:36:28;;;;;;;24.35;21.85;;;3.50;99.90;;;;;;5015200;28;20109;-74
2022/04/01 02:38:53;;;;;;;24.00;21.60;;;3.50;99.90;;;;;;5023359;28;20428;-74
2022/04/01 02:41:20;;;;;;;23.00;20.70;;;3.50;99.90;;;;;;5017922;28;20029;-75
2022/04/01 02:43:46;;;;;;;24.80;22.27;;;3.50;99.90;;;;;;5032396;28;20045;-76
2022/04/01 02:46:12;;;;;;;25.10;22.70;;;3.50;99.90;;;;;;5017986;28;20057;-75
2022/04/01 02:48:38;;;;;;;25.05;22.55;;;3.40;99.90;;;;;;5021835;28;20022;-74
2022/04/01 02:51:03;;;;;;;25.15;22.65;;;3.50;99.90;;;;;;5029566;28;20586;-74
2022/04/01 02:53:29;;;;;;;25.23;22.63;;;3.40;99.90;;;;;;5032074;28;20037;-74
2022/04/01 02:55:55;;;;;;;26.33;23.45;;;3.50;99.90;;;;;;5032194;28;20506;-74
2022/04/01 02:58:20;;;;;;;25.55;22.85;;;3.50;99.90;;;;;;5021810;28;20061;-76
2022/04/01 03:00:46;;;;;;;25.55;23.00;;;3.40;99.90;;;;;;5012210;28;20147;-73
2022/04/01 03:03:12;;;;;;;27.08;24.20;;;3.60;99.90;;;;;;5012360;28;20100;-72
2022/04/01 03:05:40;;;;;;;25.08;22.58;;;3.50;99.90;;;;;;5012258;28;20048;-72
2022/04/01 03:08:07;;;;;;;27.77;24.98;;;3.70;99.90;;;;;;5012421;28;20468;-71
2022/04/01 03:10:34;;;;;;;25.55;22.92;;;3.50;99.90;;;;;;5012089;28;20030;-72
2022/04/01 03:13:00;;;;;;;25.73;23.23;;;3.50;99.90;;;;;;5012223;28;20053;-71
2022/04/01 03:15:28;;;;;;;24.80;22.20;;;3.60;99.90;;;;;;5012189;28;20523;-72
2022/04/01 03:17:57;;;;;;;25.10;22.50;;;3.50;99.90;;;;;;5012209;28;20026;-71
2022/04/01 03:20:23;;;;;;;26.15;23.45;;;3.50;99.90;;;;;;5011872;28;20042;-71
2022/04/01 03:22:50;;;;;;;25.17;22.65;;;3.50;99.90;;;;;;5023536;28;20036;-72
2022/04/01 03:25:20;;;;;;;25.83;23.13;;;3.50;99.90;;;;;;5026749;28;20017;-73
2022/04/01 03:27:50;;;;;;;25.75;22.92;;;3.60;99.90;;;;;;5012105;28;20022;-73
2022/04/01 03:30:17;;;;;;;25.85;23.13;;;3.60;99.90;;;;;;5017703;28;20021;-75
2022/04/01 03:32:44;;;;;;;26.15;23.42;;;3.50;99.90;;;;;;5019000;28;20034;-72
2022/04/01 03:35:14;;;;;;;26.17;23.40;;;3.50;99.90;;;;;;5025450;28;20049;-71
2022/04/01 03:37:45;;;;;;;24.92;22.27;;;3.50;99.90;;;;;;5025331;28;20052;-72
2022/04/01 03:40:14;;;;;;;27.17;24.13;;;3.50;99.90;;;;;;5018835;28;20022;-72
2022/04/01 03:42:44;;;;;;;25.25;22.55;;;3.50;99.90;;;;;;5018295;28;20032;-72
2022/04/01 03:45:11;;;;;;;26.35;23.65;;;3.40;99.90;;;;;;5023652;28;20026;-73
2022/04/01 03:47:40;;;;;;;25.42;22.77;;;3.60;99.90;;;;;;5026800;28;20399;-73
2022/04/01 03:50:09;;;;;;;25.63;22.90;;;3.50;99.90;;;;;;5035566;28;20022;-73
2022/04/01 03:52:35;;;;;;;26.13;23.38;;;3.40;99.90;;;;;;5029170;28;20022;-72
2022/04/01 03:55:04;;;;;;;26.55;23.73;;;3.40;99.90;;;;;;5012129;28;20558;-73
2022/04/01 03:57:35;;;;;;;26.17;23.65;;;3.40;99.90;;;;;;5011656;28;20029;-73
2022/04/01 04:00:02;;;;;;;25.10;22.50;;;3.20;99.90;;;;;;5011783;28;20369;-73
2022/04/01 04:02:32;;;;;;;24.67;22.17;;;3.30;99.90;;;;;;5014494;28;20482;-73
2022/04/01 04:04:59;;;;;;;25.48;22.80;;;3.50;99.90;;;;;;5020165;28;20113;-73
2022/04/01 04:07:26;;;;;;;24.02;21.70;;;3.40;99.90;;;;;;5027234;28;20032;-73
2022/04/01 04:09:53;;;;;;;25.60;22.98;;;3.40;99.90;;;;;;5020990;28;20029;-73
2022/04/01 04:12:22;;;;;;;24.27;21.83;;;3.40;99.90;;;;;;5015337;28;20156;-72
2022/04/01 04:14:53;;;;;;;24.70;22.23;;;3.40;99.90;;;;;;5039720;28;20028;-74
2022/04/01 04:17:46;;;;;;;24.50;21.95;;;3.30;99.90;;;;;;5026377;28;20117;-72
2022/04/01 04:20:18;;;;;;;25.25;22.75;;;3.40;99.90;;;;;;5009114;28;20030;-72
2022/04/01 04:23:19;;;;;;;24.67;22.20;;;3.40;99.90;;;;;;5021514;28;20022;-72
2022/04/01 04:26:00;;;;;;;22.38;20.10;;;3.40;99.90;;;;;;5013172;28;20029;-72
2022/04/01 04:28:26;;;;;;;23.27;20.95;;;3.30;99.90;;;;;;5027137;28;20430;-72
2022/04/01 04:31:00;;;;;;;23.23;20.92;;;3.20;99.90;;;;;;5022029;28;20064;-73
2022/04/01 04:33:29;;;;;;;22.15;19.98;;;3.30;99.90;;;;;;5029301;28;20021;-72
2022/04/01 04:36:04;;;;;;;23.08;20.77;;;3.30;99.90;;;;;;5031164;28;20029;-72
2022/04/01 04:38:35;;;;;;;22.63;20.42;;;3.20;99.90;;;;;;5031151;28;20156;-73
2022/04/01 04:41:01;;;;;;;22.13;20.02;;;3.30;99.90;;;;;;5030816;28;20430;-72
2022/04/01 04:43:27;;;;;;;22.73;20.45;;;3.10;99.90;;;;;;5031012;28;20034;-72
2022/04/01 04:45:58;;;;;;;23.70;21.40;;;3.10;99.90;;;;;;5030919;28;20471;-72
2022/04/01 04:48:26;;;;;;;23.52;21.23;;;3.10;99.90;;;;;;5021576;28;20605;-72
2022/04/01 04:50:53;;;;;;;23.52;21.33;;;3.20;99.90;;;;;;5024698;28;20033;-72
2022/04/01 04:53:19;;;;;;;23.30;21.08;;;2.90;99.90;;;;;;5029451;28;20108;-72
2022/04/01 04:55:50;;;;;;;22.98;20.83;;;2.90;99.90;;;;;;5034643;28;20056;-72
2022/04/01 04:58:17;;;;;;;21.77;19.63;;;3.00;99.90;;;;;;5034543;28;20077;-72
2022/04/01 05:00:51;;;;;;;23.02;20.83;;;3.00;99.90;;;;;;5049431;28;20552;-72
2022/04/01 05:03:46;;;;;;;21.08;19.15;;;2.90;99.90;;;;;;5019282;28;20017;-72
2022/04/01 05:06:17;;;;;;;20.38;18.45;;;2.90;99.90;;;;;;5014702;28;20052;-72
2022/04/01 05:09:13;;;;;;;19.67;17.77;;;2.90;99.90;;;;;;5014302;28;20030;-72
2022/04/01 05:11:48;;;;;;;20.38;18.48;;;2.90;99.90;;;;;;5014118;28;20080;-72
2022/04/01 05:14:44;;;;;;;19.60;17.80;;;2.80;99.90;;;;;;5014321;28;20040;-73
2022/04/01 05:17:27;;;;;;;18.63;16.93;;;2.80;99.90;;;;;;5027621;28;20472;-72
2022/04/01 05:20:00;;;;;;;17.83;16.23;;;2.80;99.90;;;;;;5026126;28;20271;-72
2022/04/01 05:23:09;;;;;;;17.08;15.57;;;2.80;99.90;;;;;;5021555;28;20119;-72
2022/04/01 05:25:42;;;;;;;17.35;15.75;;;2.70;99.90;;;;;;5021579;28;20532;-72
2022/04/01 05:28:20;;;;;;;16.75;15.30;;;2.80;99.90;;;;;;5019005;28;20018;-72
2022/04/01 05:30:46;;;;;;;17.35;15.85;;;2.80;99.90;;;;;;5023813;28;20078;-74
2022/04/01 05:33:18;;;;;;;16.35;14.95;;;2.80;99.90;;;;;;5017514;28;20022;-72
2022/04/01 05:35:51;;;;;;;15.77;14.35;;;2.70;99.90;;;;;;5023206;28;20051;-72
2022/04/01 05:38:19;;;;;;;15.85;14.45;;;2.70;99.90;;;;;;5032628;28;20021;-73
2022/04/01 05:40:45;;;;;;;16.50;15.10;;;2.70;99.90;;;;;;5021872;28;20026;-72
2022/04/01 05:43:13;;;;;;;14.50;13.30;;;2.70;99.90;;;;;;5027062;28;20025;-72
2022/04/01 05:45:41;;;;;;;14.85;13.50;;;2.60;99.90;;;;;;5020088;28;20025;-71
2022/04/01 05:48:09;;;;;;;14.55;13.25;;;2.50;99.90;;;;;;5033423;28;20159;-72
2022/04/01 05:50:36;;;;;;;14.23;13.02;;;2.60;99.90;;;;;;5034137;28;20527;-72
2022/04/01 05:53:02;;;;;;;14.27;13.07;;;2.50;99.90;;;;;;5033586;28;20140;-72
2022/04/01 05:55:30;;;;;;;14.90;13.60;;;2.50;99.90;;;;;;5033425;28;20494;-72
2022/04/01 05:57:56;;;;;;;14.52;13.23;;;2.50;99.90;;;;;;5032032;28;20467;-72
2022/04/01 06:00:22;;;;;;;14.43;13.20;;;2.50;99.90;;;;;;5031445;28;20036;-71
2022/04/01 06:03:06;;;;;;;14.52;13.32;;;2.50;99.90;;;;;;5023557;28;20026;-71
2022/04/01 06:05:41;;;;;;;16.52;14.98;;;2.60;99.90;;;;;;5026930;28;20084;-71
2022/04/01 06:08:57;;;;;;;15.23;13.93;;;2.50;99.90;;;;;;5033220;28;20053;-72
2022/04/01 06:11:55;;;;;;;15.38;13.95;;;2.50;99.90;;;;;;5010123;28;20380;-72
2022/04/01 06:14:44;;;;;;;15.88;14.30;;;2.50;99.90;;;;;;5008096;28;20348;-72
2022/04/01 06:17:37;;;;;;;15.95;14.50;;;2.40;99.90;;;;;;5018276;28;20439;-72
2022/04/01 06:20:07;;;;;;;16.00;14.60;;;2.40;99.90;;;;;;4987892;28;20044;-72
2022/04/01 06:22:39;;;;;;;15.20;13.90;;;2.40;99.90;;;;;;5023568;28;20029;-72
2022/04/01 06:25:17;;;;;;;15.95;14.45;;;2.30;99.90;;;;;;5032592;28;20501;-72
2022/04/01 06:27:48;;;;;;;19.67;17.77;;;2.30;99.90;;;;;;5032687;28;20022;-72
2022/04/01 06:30:17;;;;;;;16.23;14.77;;;2.30;99.90;;;;;;5013820;28;20076;-72
2022/04/01 06:33:04;;;;;;;16.65;15.15;;;2.10;99.90;;;;;;5015376;28;20084;-72
2022/04/01 06:35:38;;;;;;;18.17;16.52;;;2.00;99.90;;;;;;5026263;28;20507;-73
2022/04/01 06:38:06;;;;;;;16.42;15.05;;;2.00;99.90;;;;;;5016053;28;20104;-72
2022/04/01 06:41:04;;;;;;;19.27;17.48;;;2.10;99.90;;;;;;5011318;28;20022;-72
2022/04/01 06:43:29;;;;;;;20.65;18.80;;;2.00;99.90;;;;;;5024145;28;20562;-72
2022/04/01 06:45:55;;;;;;;20.20;18.40;;;1.90;99.90;;;;;;5030481;28;20017;-72
2022/04/01 06:48:20;;;;;;;21.20;19.25;;;1.80;99.90;;;;;;5024732;28;20038;-72
2022/04/01 06:50:49;;;;;;;17.70;16.20;;;1.80;99.90;;;;;;5026685;28;20029;-73
2022/04/01 06:53:19;;;;;;;25.35;23.02;;;1.90;99.90;;;;;;5032055;28;20048;-72
2022/04/01 06:55:45;;;;;;;21.95;19.75;;;2.10;99.90;;;;;;5030991;28;20399;-73
2022/04/01 06:58:11;;;;;;;18.45;16.75;;;2.00;99.90;;;;;;5023937;28;20018;-72
2022/04/01 07:00:41;;;;;;;22.83;20.70;;;2.20;99.90;;;;;;5012386;28;20489;-72
2022/04/01 07:03:11;;;;;;;20.25;18.33;;;2.00;99.90;;;;;;5012152;28;20483;-73
2022/04/01 07:05:37;;;;;;;19.17;17.45;;;2.00;99.90;;;;;;5028627;28;20092;-73
2022/04/01 07:08:04;;;;;;;20.30;18.38;;;2.00;99.90;;;;;;5032284;28;20095;-72
2022/04/01 07:10:30;;;;;;;21.25;19.25;;;2.00;99.90;;;;;;5018377;28;20041;-72
2022/04/01 07:12:56;;;;;;;18.25;16.58;;;2.00;99.90;;;;;;5031799;28;20045;-72
2022/04/01 07:15:22;;;;;;;20.88;18.98;;;2.10;99.90;;;;;;5025665;28;20491;-72
2022/04/01 07:17:47;;;;;;;21.45;19.35;;;2.10;99.90;;;;;;5019954;28;20040;-72
2022/04/01 07:20:13;;;;;;;19.05;17.27;;;2.10;99.90;;;;;;5019865;28;20049;-73
2022/04/01 07:22:40;;;;;;;20.95;19.05;;;2.10;99.90;;;;;;5026064;28;20025;-72
2022/04/01 07:25:07;;;;;;;20.38;18.52;;;2.10;99.90;;;;;;5029789;28;20022;-73
2022/04/01 07:27:34;;;;;;;18.58;16.88;;;2.10;99.90;;;;;;5027005;28;20036;-72
2022/04/01 07:30:00;;;;;;;19.42;17.52;;;2.10;99.90;;;;;;5022950;28;20027;-73
2022/04/01 07:32:29;;;;;;;22.88;20.67;;;2.10;99.90;;;;;;5025513;28;20092;-72
2022/04/01 07:34:56;;;;;;;20.15;18.25;;;2.10;99.90;;;;;;5031658;28;20033;-72
2022/04/01 07:37:24;;;;;;;20.13;18.23;;;2.10;99.90;;;;;;5019525;28;20029;-72
2022/04/01 07:39:51;;;;;;;21.08;19.10;;;2.20;99.90;;;;;;5018787;28;20394;-72
2022/04/01 07:42:18;;;;;;;21.05;19.15;;;2.00;99.90;;;;;;5031299;28;20418;-73
2022/04/01 07:44:44;;;;;;;21.85;19.75;;;2.00;99.90;;;;;;5017174;28;20025;-72
2022/04/01 07:47:10;;;;;;;20.77;18.88;;;1.90;99.90;;;;;;5020273;28;20029;-72
2022/04/01 07:49:40;;;;;;;21.67;19.67;;;1.90;99.90;;;;;;5024898;28;20384;-72
2022/04/01 07:52:10;;;;;;;22.00;20.00;;;2.00;99.90;;;;;;5025566;28;20021;-72
2022/04/01 07:54:37;;;;;;;23.45;21.17;;;2.10;99.90;;;;;;5018215;28;20063;-73
2022/04/01 07:57:04;;;;;;;28.13;25.33;;;1.90;99.90;;;;;;5019077;28;20046;-72
2022/04/01 07:59:29;;;;;;;26.80;24.13;;;2.00;99.90;;;;;;5024989;28;20026;-72
2022/04/01 08:01:55;;;;;;;23.95;21.55;;;2.00;99.90;;;;;;5022862;28;20021;-75
2022/04/01 08:04:20;;;;;;;21.80;19.77;;;1.90;99.90;;;;;;5018130;28;20018;-74
2022/04/01 08:06:46;;;;;;;22.30;20.10;;;2.00;99.90;;;;;;5019590;28;20018;-74
2022/04/01 08:09:12;;;;;;;21.42;19.35;;;1.80;99.90;;;;;;5017117;28;20017;-74
2022/04/01 08:11:37;;;;;;;21.50;19.42;;;1.70;99.90;;;;;;5029868;28;20031;-75
2022/04/01 08:14:03;;;;;;;22.33;20.10;;;1.80;99.90;;;;;;5018235;28;20108;-74
2022/04/01 08:16:29;;;;;;;20.45;18.45;;;1.70;99.90;;;;;;5019626;28;20025;-73
2022/04/01 08:18:55;;;;;;;23.90;21.60;;;1.70;99.90;;;;;;5024533;28;20484;-73
2022/04/01 08:21:20;;;;;;;22.60;20.45;;;1.80;99.90;;;;;;4999925;28;20028;-74
2022/04/01 08:23:46;;;;;;;23.55;21.33;;;1.70;99.90;;;;;;5037441;28;20108;-73
2022/04/01 08:26:12;;;;;;;21.48;19.35;;;1.80;99.90;;;;;;5039531;28;20017;-74
2022/04/01 08:28:38;;;;;;;21.98;19.92;;;1.70;99.90;;;;;;5021937;28;20029;-74
2022/04/01 08:31:05;;;;;;;20.88;18.88;;;1.60;99.90;;;;;;5033510;28;20017;-74
2022/04/01 08:33:31;;;;;;;20.00;17.95;;;1.60;99.90;;;;;;5038988;28;20027;-73
2022/04/01 08:35:56;;;;;;;19.92;17.92;;;1.50;99.90;;;;;;5022336;28;20026;-73
2022/04/01 08:38:22;;;;;;;21.58;19.48;;;1.40;99.90;;;;;;5032920;28;20030;-73
2022/04/01 08:40:48;;;;;;;19.00;17.30;;;1.30;99.90;;;;;;5037127;28;20091;-73
2022/04/01 08:43:25;;;;;;;21.10;19.10;;;1.30;99.90;;;;;;5021489;28;20025;-73
2022/04/01 08:45:51;;;;;;;20.65;18.73;;;1.40;99.90;;;;;;5019430;28;20022;-71
2022/04/01 08:48:17;;;;;;;20.20;18.23;;;1.30;99.90;;;;;;5043879;28;20511;-73
2022/04/01 08:50:42;;;;;;;21.00;18.88;;;1.20;99.90;;;;;;5034231;28;20021;-73
2022/04/01 08:53:08;;;;;;;20.25;18.30;;;1.20;99.90;;;;;;5045986;28;20033;-73
2022/04/01 08:55:33;;;;;;;18.73;16.92;;;1.10;99.90;;;;;;5025587;28;20450;-73
2022/04/01 08:57:59;;;;;;;19.77;17.77;;;1.10;99.90;;;;;;5046357;28;20464;-73
2022/04/01 09:00:24;;;;;;;20.30;18.30;;;1.10;99.90;;;;;;5036884;28;20025;-74
2022/04/01 09:03:02;;;;;;;20.20;17.67;;;1.10;99.90;;;;;;5023736;28;20132;-74
2022/04/01 09:05:28;;;;;;;20.83;18.73;;;1.10;99.90;;;;;;5034306;28;20029;-74
2022/04/01 09:08:04;;;;;;;21.48;19.40;;;1.20;99.90;;;;;;5034558;28;20101;-73
2022/04/01 09:10:30;;;;;;;;;;;1.20;99.90;;;;;;5034721;28;20025;-73
2022/04/01 09:12:55;;;;;;;23.52;21.23;;;1.20;99.90;;;;;;5036033;28;19912;-73
2022/04/01 09:15:21;;;;;;;21.17;18.92;;;1.20;99.90;;;;;;5024045;28;20036;-73
2022/04/01 09:17:48;;;;;;;20.77;18.77;;;1.20;99.90;;;;;;5041953;28;20053;-73
2022/04/01 09:20:15;;;;;;;21.17;19.10;;;1.10;99.90;;;;;;5043186;28;20597;-73
2022/04/01 09:22:43;;;;;;;20.60;18.50;;;1.20;99.90;;;;;;5033593;28;20104;-73
2022/04/01 09:25:12;;;;;;;21.17;18.95;;;1.10;99.90;;;;;;5034138;28;20017;-73
2022/04/01 09:27:42;;;;;;;21.88;19.67;;;1.10;99.90;;;;;;5042111;28;20032;-73
2022/04/01 09:30:16;;;;;;;20.75;18.60;;;1.00;99.90;;;;;;5033493;28;20105;-73
2022/04/01 09:32:49;;;;;;;22.25;20.00;;;1.00;99.90;;;;;;5037764;28;20399;-73
2022/04/01 09:35:15;;;;;;;22.48;20.33;;;1.00;99.90;;;;;;5034411;28;20022;-73
2022/04/01 09:37:49;;;;;;;23.30;20.75;;;0.90;99.90;;;;;;5035744;28;20395;-73
2022/04/01 09:40:21;;;;;;;22.90;20.20;;;1.00;99.90;;;;;;5040204;28;20104;-73
2022/04/01 09:42:58;;;;;;;22.13;20.00;;;1.00;99.90;;;;;;5038308;28;20021;-73
2022/04/01 09:45:26;;;;;;;23.25;20.88;;;1.20;99.90;;;;;;5045160;28;20029;-73
2022/04/01 09:48:16;;;;;;;22.67;20.48;;;1.20;99.90;;;;;;5021889;28;20017;-73
2022/04/01 09:50:44;;;;;;;21.90;19.63;;;1.10;99.90;;;;;;5039092;28;20019;-72
2022/04/01 09:53:22;;;;;;;22.65;20.35;;;1.10;99.90;;;;;;5036055;28;20029;-73
2022/04/01 09:55:50;;;;;;;23.48;21.13;;;1.10;99.90;;;;;;5036373;28;20025;-74
2022/04/01 09:58:17;;;;;;;22.38;20.13;;;1.00;99.90;;;;;;5037782;28;20483;-73
2022/04/01 10:00:44;;;;;;;21.80;19.52;;;1.00;99.90;;;;;;5035335;28;20028;-73
2022/04/01 10:03:12;;;;;;;21.20;19.10;;;1.00;99.90;;;;;;5039608;28;20036;-73
2022/04/01 10:05:39;;;;;;;22.20;19.98;;;1.10;99.90;;;;;;5040919;28;20080;-73
2022/04/01 10:08:07;;;;;;;22.83;20.52;;;1.10;99.90;;;;;;5037875;28;20017;-73
2022/04/01 10:10:34;;;;;;;20.23;18.25;;;1.10;99.90;;;;;;5037990;28;20140;-73
2022/04/01 10:13:31;;;;;;;21.00;18.90;;;1.10;99.90;;;;;;5039686;28;20032;-73
2022/04/01 10:15:58;;;;;;;21.92;19.83;;;1.10;99.90;;;;;;5042575;28;20017;-73
2022/04/01 10:18:25;;;;;;;23.42;21.15;;;1.20;99.90;;;;;;5038631;28;20491;-73
2022/04/01 10:20:54;;;;;;;21.88;19.58;;;1.30;99.90;;;;;;5043924;28;20021;-73
2022/04/01 10:23:24;;;;;;;22.00;19.73;;;1.30;99.90;;;;;;5033340;28;20171;-73
2022/04/01 10:26:05;;;;;;;22.63;20.38;;;1.30;99.90;;;;;;5036557;28;20061;-73
2022/04/01 10:28:31;;;;;;;21.40;19.23;;;1.40;99.90;;;;;;5043637;28;20022;-73
2022/04/01 10:31:02;;;;;;;22.70;20.40;;;1.40;99.90;;;;;;5038658;28;20507;-73
2022/04/01 10:33:35;;;;;;;20.77;18.77;;;1.40;99.90;;;;;;5035129;28;20037;-73
2022/04/01 10:36:14;;;;;;;21.13;19.02;;;1.20;99.90;;;;;;5032471;28;20021;-73
2022/04/01 10:38:39;;;;;;;22.30;20.10;;;1.30;99.90;;;;;;5032278;28;20505;-73
2022/04/01 10:41:12;;;;;;;20.02;18.02;;;1.50;99.90;;;;;;5031662;28;20057;-73
2022/04/01 10:43:42;;;;;;;19.23;17.27;;;1.40;99.90;;;;;;5030368;28;20025;-73
2022/04/01 10:46:14;;;;;;;20.13;18.02;;;1.40;99.90;;;;;;5030230;28;20032;-74
2022/04/01 10:52:22;;;;;;;17.42;15.75;;;1.60;99.90;;;;;;5029877;28;20099;-74
2022/04/01 10:54:50;;;;;;;16.38;14.88;;;1.70;99.90;;;;;;5031555;28;20041;-73
2022/04/01 10:57:28;;;;;;;17.33;15.48;;;1.60;99.90;;;;;;5032916;28;20029;-73
2022/04/01 10:59:54;;;;;;;20.00;16.75;;;1.60;99.90;;;;;;5032827;28;20025;-74
2022/04/01 11:02:21;;;;;;;15.77;14.27;;;1.60;99.90;;;;;;5031537;28;20017;-74
2022/04/01 11:04:48;;;;;;;17.40;14.70;;;1.50;99.90;;;;;;5037626;28;20021;-74
2022/04/01 11:07:23;;;;;;;16.33;14.63;;;1.60;99.90;;;;;;5042212;28;20028;-73
2022/04/01 11:10:00;;;;;;;15.63;14.13;;;1.70;99.90;;;;;;5025979;28;20017;-73
2022/04/01 11:12:49;;;;;;;16.17;14.50;;;1.60;99.90;;;;;;5035552;28;20665;-73
2022/04/01 11:15:18;;;;;;;16.48;14.88;;;1.60;99.90;;;;;;5016367;28;20493;-73
2022/04/01 11:17:44;;;;;;;15.57;14.07;;;1.70;99.90;;;;;;5043627;28;20483;-74
2022/04/01 11:20:18;;;;;;;15.43;13.82;;;1.80;99.90;;;;;;5041091;28;20036;-74
2022/04/01 11:22:45;;;;;;;15.60;14.10;;;1.90;99.90;;;;;;5016709;28;20391;-74
2022/04/01 11:25:24;;;;;;;14.45;13.05;;;2.00;99.90;;;;;;5031637;28;20028;-73
2022/04/01 11:28:10;;;;;;;14.38;12.98;;;2.00;99.90;;;;;;5035259;28;20025;-74
2022/04/01 11:30:43;;;;;;;15.55;12.95;;;1.90;99.90;;;;;;5003263;28;20025;-74
2022/04/01 11:33:20;;;;;;;14.75;13.30;;;1.70;99.90;;;;;;5032788;28;20053;-75
2022/04/01 11:35:53;;;;;;;16.00;14.50;;;1.80;99.90;;;;;;5032079;28;20033;-74
2022/04/01 11:38:24;;;;;;;15.50;14.00;;;1.80;99.90;;;;;;5022158;28;20017;-74
2022/04/01 11:40:56;;;;;;;14.18;12.88;;;1.80;99.90;;;;;;5042934;28;20061;-74
2022/04/01 11:43:23;;;;;;;15.52;13.70;;;1.90;99.90;;;;;;5032815;28;20033;-74
2022/04/01 11:45:51;;;;;;;14.15;12.77;;;2.00;99.90;;;;;;5041012;28;20017;-74
2022/04/01 11:48:37;;;;;;;13.95;12.65;;;1.90;99.90;;;;;;5030766;28;20360;-74
2022/04/01 11:51:11;;;;;;;13.07;11.75;;;1.90;99.90;;;;;;5038883;28;20029;-74
2022/04/01 11:53:41;;;;;;;14.13;12.75;;;1.80;99.90;;;;;;5036962;28;20116;-74
2022/04/01 11:56:10;;;;;;;16.55;14.95;;;1.90;99.90;;;;;;5042739;28;20360;-74
2022/04/01 11:58:57;;;;;;;13.73;12.43;;;1.90;99.90;;;;;;5043111;28;20017;-74
2022/04/01 12:01:23;;;;;;;;;;;1.90;99.90;;;;;;5033478;28;20055;-74
2022/04/01 12:03:49;;;;;;;14.40;12.82;;;1.90;99.90;;;;;;5036739;28;19974;-74
2022/04/01 12:09:05;;;;;;;13.30;12.10;;;1.80;99.90;;;;;;5046483;28;20113;-74
2022/04/01 12:11:47;;;;;;;13.23;11.90;;;1.90;99.90;;;;;;5046664;28;20021;-74
2022/04/01 12:14:21;;;;;;;14.52;13.13;;;2.00;99.90;;;;;;5045878;28;20024;-74
2022/04/01 12:16:47;;;;;;;13.85;12.55;;;1.90;99.90;;;;;;5041243;28;20506;-74
2022/04/01 12:19:16;;;;;;;13.30;12.10;;;1.90;99.90;;;;;;5045771;28;20057;-74
2022/04/01 12:21:42;;;;;;;12.85;11.65;;;1.80;99.90;;;;;;5047248;28;20068;-74
2022/04/01 12:24:07;;;;;;;13.05;11.75;;;1.80;99.90;;;;;;5041367;28;20716;-74
2022/04/01 12:26:33;;;;;;;12.95;11.75;;;1.80;99.90;;;;;;5047825;28;20054;-74
2022/04/01 12:28:59;;;;;;;12.52;11.32;;;1.80;99.90;;;;;;5036694;28;20054;-74
2022/04/01 12:31:27;;;;;;;13.07;11.88;;;1.80;99.90;;;;;;5047523;28;20030;-74
2022/04/01 12:33:55;;;;;;;13.30;12.10;;;1.80;99.90;;;;;;5050826;28;20013;-74
2022/04/01 12:36:38;;;;;;;11.90;10.85;;;1.80;99.90;;;;;;5043206;28;20364;-74
2022/04/01 12:39:05;;;;;;;11.77;10.70;;;1.80;99.90;;;;;;5047685;28;20104;-74
2022/04/01 12:41:31;;;;;;;11.60;10.60;;;1.80;99.90;;;;;;5024911;28;20111;-74
2022/04/01 12:43:59;;;;;;;11.27;10.38;;;1.70;99.90;;;;;;5048241;28;20527;-74
2022/04/01 12:46:31;;;;;;;11.95;10.93;;;1.80;99.90;;;;;;5025136;28;20024;-74
2022/04/01 12:48:59;;;;;;;12.32;11.23;;;1.80;99.90;;;;;;5047221;28;20013;-74
2022/04/01 12:51:35;;;;;;;12.15;11.00;;;1.70;99.90;;;;;;5045128;28;20158;-74
2022/04/01 12:54:11;;;;;;;12.52;11.43;;;1.70;99.90;;;;;;5045841;28;20025;-74
2022/04/01 12:56:37;;;;;;;11.43;10.40;;;1.60;99.90;;;;;;5046333;28;20021;-74
2022/04/01 12:59:04;;;;;;;19.02;17.17;;;1.60;99.90;;;;;;5044570;28;20036;-74
2022/04/01 13:01:32;;;;;;;12.05;10.95;;;1.60;99.90;;;;;;5045925;28;20458;-74